createdAt,value
2023-04-18T00:29:26.748Z,5.98
2023-04-18T00:59:30.114Z,5.95
2023-04-18T01:29:33.491Z,6.01
2023-04-18T01:59:36.756Z,5.93
2023-04-18T02:29:39.743Z,6.01
2023-04-18T02:59:43.002Z,6.04
2023-04-18T03:29:46.603Z,6.00
2023-04-18T03:59:50.475Z,5.99
2023-04-18T04:29:53.431Z,6.12
2023-04-18T04:59:56.751Z,6.32
2023-04-18T05:29:59.878Z,6.54
2023-04-18T06:00:03.172Z,6.90
2023-04-18T06:30:06.652Z,7.30
2023-04-18T07:00:09.883Z,8.52
2023-04-18T07:30:12.950Z,9.34
2023-04-18T08:00:16.034Z,9.61
2023-04-18T08:30:19.555Z,9.98
2023-04-18T09:00:23.069Z,10.59
2023-04-18T09:30:26.121Z,11.30
2023-04-18T10:00:29.447Z,11.89
2023-04-18T10:30:32.612Z,12.40
2023-04-18T11:00:35.585Z,12.39
2023-04-18T11:30:39.240Z,12.91
2023-04-18T12:00:42.139Z,13.01
2023-04-18T12:30:46.723Z,12.71
2023-04-18T13:00:49.694Z,13.32
2023-04-18T13:30:53.255Z,13.49
2023-04-18T14:00:56.827Z,13.69
2023-04-18T14:30:59.897Z,13.69
2023-04-18T15:01:03.218Z,13.47
2023-04-18T15:31:06.440Z,13.71
2023-04-18T16:01:10.514Z,14.08
2023-04-18T16:31:14.263Z,13.20
2023-04-18T17:01:17.813Z,12.61
2023-04-18T17:31:25.697Z,12.19
2023-04-18T18:01:28.807Z,11.07
2023-04-18T18:31:32.975Z,10.97
2023-04-18T19:01:35.986Z,11.16
2023-04-18T19:31:39.708Z,11.06
2023-04-18T20:01:42.926Z,10.66
2023-04-18T20:31:47.792Z,10.12
2023-04-18T21:01:50.945Z,9.74
2023-04-18T21:31:55.271Z,9.28
2023-04-18T22:01:59.907Z,9.00
2023-04-18T22:32:06.785Z,8.59
2023-04-18T23:02:11.226Z,8.13
2023-04-18T23:32:14.387Z,7.47
